KATW/ATW METAR and TAF weather

Enter ICAO airport designator
Station Type Date Time Source
KATW METAR 2019/02/20 22:45 UTC NOAA

KATW 202245Z 15005KT 2SM -SN OVC005 M01/M01 A2958


Station Type Date Time Source
KATW Decoded METAR 2019/02/20 22:45 UTC NOAA

Appleton / Outagamie, WI, United States (KATW) 44-15N 088-31W
Feb 20, 2019 - 05:45 PM EST / 2019.02.20 2245 UTC
Wind: from the SSE (150 degrees) at 6 MPH (5 KT):0
Visibility: 2 mile(s):0
Sky conditions: overcast
Weather: light snow
Temperature: 30 F (-1 C)
Windchill: 23 F (-5 C):1
Dew Point: 30 F (-1 C)
Relative Humidity: 100%
Pressure (altimeter): 29.58 in. Hg (1001 hPa)
ob: KATW 202245Z 15005KT 2SM -SN OVC005 M01/M01 A2958
cycle: 23

Station Type Date Time Source
KATW TAF 2019/02/20 22:39 UTC NOAA

TAF
AMD KATW 202136Z 2022/2118 12010G15KT 2SM -SN OVC012
TEMPO 2022/2024 3/4SM -SN OVC009
FM210100 24011G18KT 3SM -SN BR OVC015
FM210400 25012G20KT P6SM -SHSN BKN025
FM211300 26011G16KT P6SM SCT030


Example: see airport list